Lakemore, Ohio
Current Conditions -  °F | °C
As of 10:54 PM on Friday 19 Dec 2014 (Local Time) from KAKR Reporting Station
Overcast Overcast  
Wind Chill: 24°   Ceiling: 2300
Heat Index: 29°   Visibility: 10mi
Dew Point: 19°   Wind: 5mph
Humidity: 67%   Direction: 360°N
Pressure: 30.26"   Gusts: NA
Location:  41.02°N, 81.44°W
Report Text: KAKR 200354Z AUTO 36004KT 10SM OVC023 M02/M07 A3026 RMK AO2 SLP258 T10171072
Loading
Personal Weather Stations






























Interactive Weather Map New forecast layout! Learn more

10-Day Weather Forecast

Advertisements
Track Severe Weather on mobile